CheckWX is a tool to help pilots better visualize weather data.  It is not intended as a substitute for an official pre-flight weather briefing.

09:29:12 UTC

KGJT TAF
Grand Junction Regional Airport
Grand Junction, Colorado, USA
KGJT 180521Z 1806/1906 33003KT P6SM VCSH SCT100 BKN120 FM181200 12005KT P6SM SCT120 BKN180 FM181900 28005KT P6SM VCSH FEW070 SCT100 FM190000 31006KT P6SM FEW070 SCT100

Jun-18@
06:00 UTC

Jun-18 @ 06:00 UTC

Jun-18@
12:00 UTC

Jun-18 @ 12:00 UTC

KGJT 180521Z 1806/1906 33003KT P6SM VCSH SCT100 BKN120
Wind
  • 330° at 3 KTS
Cloud Levels
  • Scattered at 10,000' AGL
  • Broken at 12,000' AGL

Jun-18@
12:00 UTC

Jun-18 @ 12:00 UTC

Jun-18@
19:00 UTC

Jun-18 @ 19:00 UTC

FM181200 12005KT P6SM SCT120 BKN180

From

From Standard forecast or significant change

Wind
  • 120° at 5 KTS
Cloud Levels
  • Scattered at 12,000' AGL
  • Broken at 18,000' AGL

Jun-18@
19:00 UTC

Jun-18 @ 19:00 UTC

Jun-19@
00:00 UTC

Jun-19 @ 00:00 UTC

FM181900 28005KT P6SM VCSH FEW070 SCT100

From

From Standard forecast or significant change

Wind
  • 280° at 5 KTS
Cloud Levels
  • Few at 7,000' AGL
  • Scattered at 10,000' AGL

Jun-19@
00:00 UTC

Jun-19 @ 00:00 UTC

Jun-19@
06:00 UTC

Jun-19 @ 06:00 UTC

FM190000 31006KT P6SM FEW070 SCT100

From

From Standard forecast or significant change

Wind
  • 310° at 6 KTS
Cloud Levels
  • Few at 7,000' AGL
  • Scattered at 10,000' AGL